Time;durP1;ratioP1;P1;durP2;ratioP2;P2;SDS_P1;SDS_P2;PMS_P1;PMS_P2;Temp;Humidity;BMP_temperature;BMP_pressure;BME280_temperature;BME280_humidity;BME280_pressure;Samples;Min_cycle;Max_cycle;Signal;HPM_P1;HPM_P2
2022/07/31 00:00:39;;;;;;;6.33;4.70;;;27.40;99.90;;;;;;1857870;75;21162;-79
2022/07/31 00:03:10;;;;;;;9.48;6.65;;;27.40;99.90;;;;;;1874538;74;21151;-81
2022/07/31 00:05:42;;;;;;;10.05;5.60;;;27.40;99.90;;;;;;1885633;75;21983;-80
2022/07/31 00:08:13;;;;;;;7.80;5.15;;;27.40;99.90;;;;;;1876848;72;21022;-82
2022/07/31 00:10:44;;;;;;;6.72;5.55;;;27.40;99.90;;;;;;1891678;74;21112;-82
2022/07/31 00:13:15;;;;;;;8.58;6.20;;;27.40;99.90;;;;;;1882144;74;21197;-81
2022/07/31 00:15:46;;;;;;;7.50;5.37;;;27.40;99.90;;;;;;1877364;74;21143;-81
2022/07/31 00:18:17;;;;;;;10.28;7.70;;;27.50;99.90;;;;;;1882423;73;21215;-81
2022/07/31 00:20:48;;;;;;;6.92;5.62;;;27.50;99.90;;;;;;1877297;74;21138;-80
2022/07/31 00:23:19;;;;;;;10.03;5.40;;;27.50;99.90;;;;;;1878748;75;21143;-80
2022/07/31 00:25:50;;;;;;;9.50;7.03;;;27.60;99.90;;;;;;1877637;75;21154;-79
2022/07/31 00:28:21;;;;;;;8.40;6.15;;;27.60;99.90;;;;;;1871146;75;21119;-80
2022/07/31 00:30:55;;;;;;;8.18;5.95;;;27.60;99.90;;;;;;1876579;75;21116;-81
2022/07/31 00:33:26;;;;;;;8.90;6.08;;;27.60;99.90;;;;;;1873713;75;21072;-80
2022/07/31 00:35:56;;;;;;;6.42;5.50;;;27.60;99.90;;;;;;1874700;75;21123;-80
2022/07/31 00:38:27;;;;;;;8.98;6.10;;;27.70;99.90;;;;;;1875463;75;21607;-79
2022/07/31 00:40:58;;;;;;;8.33;5.80;;;27.70;99.90;;;;;;1876381;75;21136;-79
2022/07/31 00:43:31;;;;;;;9.70;5.75;;;27.70;99.60;;;;;;1879611;75;21061;-80
2022/07/31 00:46:02;;;;;;;8.05;5.87;;;27.70;99.80;;;;;;1877350;75;21567;-79
2022/07/31 00:48:34;;;;;;;8.75;5.95;;;27.80;99.90;;;;;;1883245;75;21108;-80
2022/07/31 00:51:06;;;;;;;8.25;5.60;;;27.80;99.90;;;;;;1893055;75;21639;-80
2022/07/31 00:53:37;;;;;;;6.75;5.55;;;27.80;99.70;;;;;;1873628;75;21100;-79
2022/07/31 00:56:08;;;;;;;7.87;6.37;;;27.90;99.90;;;;;;1790992;79;21136;-79
2022/07/31 00:58:39;;;;;;;10.03;6.00;;;27.90;99.70;;;;;;1832931;76;21199;-79
2022/07/31 01:01:09;;;;;;;9.85;5.42;;;28.00;99.70;;;;;;1836240;76;21201;-79
2022/07/31 01:03:40;;;;;;;6.15;5.37;;;28.00;99.50;;;;;;1790067;78;21164;-79
2022/07/31 01:06:12;;;;;;;7.20;5.28;;;28.10;99.30;;;;;;1874521;75;21184;-80
2022/07/31 01:08:43;;;;;;;7.85;5.53;;;28.20;99.30;;;;;;1877671;75;21611;-80
2022/07/31 01:11:16;;;;;;;6.65;5.50;;;28.30;99.10;;;;;;1852311;75;22010;-79
2022/07/31 01:13:49;;;;;;;6.37;5.08;;;28.30;98.70;;;;;;1880905;75;21184;-81
2022/07/31 01:16:21;;;;;;;7.17;5.83;;;28.30;98.80;;;;;;1879378;75;21658;-80
2022/07/31 01:18:55;;;;;;;8.25;5.10;;;28.40;98.70;;;;;;1870624;75;21124;-81
2022/07/31 01:21:28;;;;;;;9.03;5.92;;;28.50;98.70;;;;;;1863243;75;21092;-81
2022/07/31 01:24:02;;;;;;;6.17;5.50;;;28.50;98.70;;;;;;1872891;75;21596;-81
2022/07/31 01:26:36;;;;;;;7.67;5.75;;;28.60;98.50;;;;;;1871482;75;21174;-70
2022/07/31 01:29:09;;;;;;;7.20;5.42;;;28.70;98.40;;;;;;1874842;75;21190;-71
2022/07/31 01:31:42;;;;;;;6.42;5.70;;;28.70;98.30;;;;;;1871644;75;21104;-70
2022/07/31 01:34:16;;;;;;;8.93;5.62;;;28.80;98.30;;;;;;1865077;75;21644;-70
2022/07/31 01:36:49;;;;;;;8.13;6.17;;;28.90;98.30;;;;;;1868063;75;21147;-70
2022/07/31 01:39:20;;;;;;;9.80;6.58;;;29.00;98.10;;;;;;1868785;75;21100;-70
2022/07/31 01:41:52;;;;;;;8.25;6.50;;;29.00;98.00;;;;;;1850935;75;21628;-71
2022/07/31 01:44:25;;;;;;;8.00;6.42;;;29.00;97.50;;;;;;1874432;76;21216;-70
2022/07/31 01:46:57;;;;;;;8.83;6.17;;;29.00;97.60;;;;;;1865873;75;21457;-71
2022/07/31 01:49:30;;;;;;;8.10;6.25;;;29.00;97.90;;;;;;1869420;75;21198;-71
2022/07/31 01:52:05;;;;;;;8.95;6.28;;;29.00;97.90;;;;;;1868753;76;21181;-71
2022/07/31 01:54:38;;;;;;;7.67;6.10;;;29.00;97.80;;;;;;1829932;76;21179;-70
2022/07/31 01:57:10;;;;;;;7.67;6.80;;;29.10;97.70;;;;;;1794868;80;21159;-69
2022/07/31 01:59:44;;;;;;;9.03;6.53;;;29.20;97.60;;;;;;1835353;76;21155;-70
2022/07/31 02:02:18;;;;;;;8.85;6.70;;;29.30;97.40;;;;;;1872285;75;21120;-70
2022/07/31 02:04:49;;;;;;;9.40;6.78;;;29.40;97.30;;;;;;1858145;75;21119;-69
2022/07/31 02:07:22;;;;;;;9.48;6.53;;;29.50;97.20;;;;;;1872064;75;21119;-71
2022/07/31 02:09:54;;;;;;;8.53;7.05;;;29.60;97.00;;;;;;1855460;76;21112;-70
2022/07/31 02:12:28;;;;;;;8.83;7.05;;;29.60;96.90;;;;;;1864677;74;21690;-70
2022/07/31 02:15:01;;;;;;;11.03;6.60;;;29.70;96.90;;;;;;1874678;75;21111;-71
2022/07/31 02:17:33;;;;;;;12.20;6.60;;;29.60;96.80;;;;;;1873684;75;21174;-71
2022/07/31 02:20:06;;;;;;;10.98;6.70;;;29.60;96.90;;;;;;1871936;75;21139;-70
2022/07/31 02:22:37;;;;;;;10.18;6.67;;;29.60;96.90;;;;;;1879821;75;21160;-71
2022/07/31 02:25:09;;;;;;;8.28;6.42;;;29.60;97.00;;;;;;1874416;75;21139;-71
2022/07/31 02:27:42;;;;;;;9.68;6.65;;;29.60;97.00;;;;;;1874367;75;21672;-70
2022/07/31 02:30:16;;;;;;;8.63;6.85;;;29.60;97.00;;;;;;1872770;75;21243;-71
2022/07/31 02:32:48;;;;;;;7.85;7.03;;;29.50;97.10;;;;;;1866060;75;21174;-70
2022/07/31 02:35:19;;;;;;;10.00;6.55;;;29.50;97.10;;;;;;1880963;75;21675;-70
2022/07/31 02:37:52;;;;;;;8.85;6.65;;;29.50;97.20;;;;;;1875526;75;21602;-70
2022/07/31 02:40:25;;;;;;;15.53;11.45;;;29.50;97.30;;;;;;1857282;75;21729;-69
2022/07/31 02:42:56;;;;;;;19.20;13.88;;;29.50;97.60;;;;;;1882111;75;21797;-70
2022/07/31 02:45:27;;;;;;;12.43;8.85;;;29.50;97.60;;;;;;1881113;75;21108;-69
2022/07/31 02:47:59;;;;;;;18.60;11.25;;;29.60;97.70;;;;;;1881322;75;21119;-69
2022/07/31 02:50:30;;;;;;;75.45;47.60;;;29.60;97.70;;;;;;1890058;75;21187;-70
2022/07/31 02:53:03;;;;;;;22.82;15.63;;;29.60;97.50;;;;;;1882422;74;21249;-70
2022/07/31 02:55:35;;;;;;;21.07;13.80;;;29.60;97.50;;;;;;1881318;75;21104;-70
2022/07/31 02:58:07;;;;;;;12.65;7.83;;;29.70;97.50;;;;;;1885640;75;21159;-70
2022/07/31 03:00:38;;;;;;;12.75;7.60;;;29.70;97.70;;;;;;1884632;75;21158;-70
2022/07/31 03:03:10;;;;;;;62.40;37.15;;;29.70;97.50;;;;;;1880412;75;21298;-70
2022/07/31 03:05:41;;;;;;;15.13;10.70;;;29.70;98.00;;;;;;1877565;75;21104;-70
2022/07/31 03:08:11;;;;;;;19.57;12.70;;;29.80;97.60;;;;;;1881361;75;21226;-70
2022/07/31 03:10:43;;;;;;;9.35;7.47;;;29.90;97.70;;;;;;1878381;75;21706;-70
2022/07/31 03:13:15;;;;;;;9.75;7.58;;;29.90;97.50;;;;;;1894225;75;21201;-69
2022/07/31 03:15:46;;;;;;;27.22;18.70;;;29.90;97.40;;;;;;1880541;75;21205;-70
2022/07/31 03:18:20;;;;;;;12.10;8.75;;;30.00;97.60;;;;;;1880644;74;21166;-70
2022/07/31 03:20:52;;;;;;;9.48;7.58;;;30.00;97.20;;;;;;1870603;75;21230;-69
2022/07/31 03:23:26;;;;;;;79.27;45.98;;;30.10;97.20;;;;;;1866088;75;21178;-70
2022/07/31 03:25:57;;;;;;;13.78;10.75;;;30.20;97.10;;;;;;1877569;75;21206;-69
2022/07/31 03:28:28;;;;;;;13.03;9.83;;;30.20;97.20;;;;;;1867172;75;21634;-69
2022/07/31 03:30:59;;;;;;;29.30;21.30;;;30.20;97.00;;;;;;1877994;75;21139;-70
2022/07/31 03:33:30;;;;;;;27.87;18.30;;;30.20;97.00;;;;;;1882612;75;21120;-70
2022/07/31 03:36:01;;;;;;;17.37;11.97;;;30.20;96.80;;;;;;1844006;74;21493;-70
2022/07/31 03:38:32;;;;;;;13.48;10.35;;;30.20;97.00;;;;;;1877306;74;21045;-70
2022/07/31 03:41:04;;;;;;;13.00;10.53;;;30.30;96.80;;;;;;1881795;74;21099;-70
2022/07/31 03:43:35;;;;;;;16.00;11.83;;;30.30;96.90;;;;;;1890771;74;21120;-70
2022/07/31 03:46:09;;;;;;;12.60;9.83;;;30.30;96.60;;;;;;1890237;74;21197;-70
2022/07/31 03:48:40;;;;;;;11.60;8.65;;;30.40;96.40;;;;;;1874959;75;21587;-70
2022/07/31 03:51:12;;;;;;;13.45;8.85;;;30.50;96.40;;;;;;1843852;75;21136;-69
2022/07/31 03:53:44;;;;;;;11.03;9.25;;;30.70;95.70;;;;;;1859721;75;21629;-69
2022/07/31 03:56:17;;;;;;;14.05;11.28;;;30.70;95.60;;;;;;1879922;75;21693;-69
2022/07/31 03:58:48;;;;;;;13.62;8.98;;;30.70;95.60;;;;;;1879041;75;21072;-70
2022/07/31 04:01:21;;;;;;;16.87;10.95;;;30.70;95.20;;;;;;1894469;75;21188;-69
2022/07/31 04:03:55;;;;;;;13.80;10.08;;;30.70;95.20;;;;;;1889668;75;21213;-69
2022/07/31 04:06:26;;;;;;;24.35;16.70;;;30.80;95.10;;;;;;1882784;74;21163;-69
2022/07/31 04:09:00;;;;;;;10.10;8.18;;;30.80;94.90;;;;;;1869927;75;21162;-70
2022/07/31 04:11:31;;;;;;;10.40;7.75;;;30.90;94.90;;;;;;1878737;74;21656;-71
2022/07/31 04:14:02;;;;;;;15.70;11.80;;;30.90;95.20;;;;;;1863702;75;21166;-70
2022/07/31 04:16:33;;;;;;;11.05;8.73;;;31.00;95.00;;;;;;1881228;75;21237;-70
2022/07/31 04:19:03;;;;;;;13.98;11.43;;;31.00;94.60;;;;;;1871976;75;21127;-70
2022/07/31 04:21:34;;;;;;;11.85;9.43;;;31.00;94.70;;;;;;1881234;75;21568;-70
2022/07/31 04:24:06;;;;;;;12.75;9.33;;;31.00;94.60;;;;;;1876722;75;21572;-70
2022/07/31 04:26:37;;;;;;;9.90;8.55;;;31.00;94.80;;;;;;1854226;75;21138;-69
2022/07/31 04:29:08;;;;;;;17.80;12.68;;;30.90;94.60;;;;;;1873468;75;21115;-70
2022/07/31 04:31:38;;;;;;;10.08;8.93;;;30.90;94.60;;;;;;1874706;75;21187;-70
2022/07/31 04:34:09;;;;;;;17.10;11.57;;;30.90;94.80;;;;;;1842585;76;21138;-70
2022/07/31 04:36:41;;;;;;;15.58;10.85;;;30.90;94.70;;;;;;1844800;77;21185;-69
2022/07/31 04:39:12;;;;;;;12.07;9.70;;;30.80;94.80;;;;;;1793747;78;21143;-71
2022/07/31 04:41:43;;;;;;;16.42;12.73;;;30.90;94.60;;;;;;1821378;77;21241;-70
2022/07/31 04:44:14;;;;;;;11.35;9.28;;;30.90;94.70;;;;;;1866348;75;21081;-71
2022/07/31 04:46:44;;;;;;;12.58;10.18;;;30.80;94.80;;;;;;1878567;75;21124;-71
2022/07/31 04:49:15;;;;;;;17.35;10.28;;;30.80;94.90;;;;;;1872720;75;21520;-71
2022/07/31 04:51:46;;;;;;;11.18;9.15;;;30.90;95.00;;;;;;1874862;75;22051;-71
2022/07/31 04:54:17;;;;;;;12.58;9.25;;;30.90;95.00;;;;;;1867798;75;21627;-71
2022/07/31 04:56:48;;;;;;;13.85;10.43;;;30.90;94.90;;;;;;1801532;78;21108;-70
2022/07/31 04:59:21;;;;;;;12.93;10.55;;;30.90;94.70;;;;;;1840517;77;21127;-70
2022/07/31 05:01:53;;;;;;;9.78;8.78;;;30.90;94.70;;;;;;1863031;74;21099;-71
2022/07/31 05:04:25;;;;;;;12.28;10.10;;;31.00;94.80;;;;;;1884510;74;21732;-71
2022/07/31 05:06:56;;;;;;;11.75;8.95;;;31.10;94.40;;;;;;1875173;75;21179;-70
2022/07/31 05:09:32;;;;;;;10.98;9.85;;;31.10;94.40;;;;;;1893816;75;21596;-70
2022/07/31 05:12:00;;;;;;;10.90;8.95;;;31.10;93.90;;;;;;1883284;75;21630;-71
2022/07/31 05:14:31;;;;;;;15.68;13.50;;;31.10;94.00;;;;;;1881491;75;21535;-70
2022/07/31 05:17:02;;;;;;;20.20;15.05;;;31.10;94.10;;;;;;1890477;75;21496;-71
2022/07/31 05:19:33;;;;;;;16.35;11.63;;;31.20;94.40;;;;;;1869656;75;21175;-71
2022/07/31 05:22:04;;;;;;;10.45;9.35;;;31.30;94.20;;;;;;1872732;75;21540;-71
2022/07/31 05:24:35;;;;;;;11.53;9.43;;;31.60;93.80;;;;;;1881551;75;21205;-71
2022/07/31 05:27:06;;;;;;;10.48;9.25;;;31.80;92.90;;;;;;1856983;75;21577;-70
2022/07/31 05:29:40;;;;;;;11.48;8.58;;;31.90;92.90;;;;;;1873328;75;21225;-71
2022/07/31 05:32:18;;;;;;;10.98;9.85;;;32.00;93.00;;;;;;1867020;75;21132;-71
2022/07/31 05:34:46;;;;;;;11.63;9.28;;;32.10;92.70;;;;;;1878401;75;21635;-71
2022/07/31 05:37:19;;;;;;;12.10;9.75;;;32.20;92.30;;;;;;1823308;77;21138;-71
2022/07/31 05:39:50;;;;;;;9.75;8.13;;;32.40;91.80;;;;;;1837376;78;21794;-71
2022/07/31 05:42:20;;;;;;;9.45;7.58;;;32.40;92.40;;;;;;1821767;77;21633;-70
2022/07/31 05:44:52;;;;;;;10.15;8.23;;;32.40;93.00;;;;;;1826922;77;21127;-71
2022/07/31 05:47:22;;;;;;;8.85;7.90;;;32.50;93.10;;;;;;1822854;77;21228;-70
2022/07/31 05:49:56;;;;;;;11.45;8.25;;;32.50;92.90;;;;;;1813598;77;21142;-70
2022/07/31 05:52:27;;;;;;;8.73;7.80;;;32.50;92.80;;;;;;1829813;76;21169;-70
2022/07/31 05:55:01;;;;;;;10.98;7.83;;;32.40;93.30;;;;;;1845128;76;21767;-71
2022/07/31 05:57:30;;;;;;;10.03;8.35;;;32.30;93.50;;;;;;1854316;76;21056;-70
2022/07/31 06:00:02;;;;;;;9.53;8.28;;;32.20;93.90;;;;;;1897401;74;21668;-70
2022/07/31 06:02:33;;;;;;;10.75;8.08;;;32.00;94.20;;;;;;1889470;74;21058;-71
2022/07/31 06:05:05;;;;;;;9.68;7.65;;;31.90;94.40;;;;;;1891458;74;21689;-71
2022/07/31 06:07:36;;;;;;;11.08;8.25;;;31.80;94.50;;;;;;1891464;74;21219;-71
2022/07/31 06:10:12;;;;;;;8.53;7.62;;;31.80;94.60;;;;;;1905963;74;21191;-71
2022/07/31 06:12:44;;;;;;;9.80;8.23;;;31.70;94.60;;;;;;1890102;74;21155;-71
2022/07/31 06:15:16;;;;;;;10.13;7.95;;;31.60;95.00;;;;;;1911655;74;21139;-71
2022/07/31 06:17:54;;;;;;;11.97;8.63;;;31.50;95.20;;;;;;1882715;76;21179;-72
2022/07/31 06:20:27;;;;;;;18.37;13.22;;;31.50;95.00;;;;;;1910769;73;21423;-70
2022/07/31 06:22:58;;;;;;;10.32;8.50;;;31.50;94.80;;;;;;1904116;73;21104;-70
2022/07/31 06:25:29;;;;;;;11.20;8.18;;;31.60;95.30;;;;;;1901925;73;21662;-70
2022/07/31 06:28:01;;;;;;;12.75;8.13;;;31.50;95.20;;;;;;1870762;75;21177;-71
2022/07/31 06:30:36;;;;;;;10.03;7.95;;;31.40;95.20;;;;;;1883191;75;21188;-71
2022/07/31 06:33:16;;;;;;;10.05;8.23;;;31.40;95.30;;;;;;1874565;75;21128;-72
2022/07/31 06:35:44;;;;;;;10.82;8.18;;;31.40;95.10;;;;;;1881180;74;21149;-71
2022/07/31 06:38:15;;;;;;;9.40;8.38;;;31.40;95.00;;;;;;1887112;75;21524;-71
2022/07/31 06:40:50;;;;;;;9.18;8.00;;;31.40;95.00;;;;;;1858850;75;21167;-70
2022/07/31 06:43:21;;;;;;;9.40;8.30;;;31.40;94.90;;;;;;1860253;75;21626;-71
2022/07/31 06:45:52;;;;;;;10.50;8.50;;;31.30;95.00;;;;;;1865665;75;21080;-71
2022/07/31 06:48:25;;;;;;;9.33;8.08;;;31.30;95.10;;;;;;1869807;75;21138;-72
2022/07/31 06:50:57;;;;;;;10.85;8.68;;;31.20;95.20;;;;;;1862148;75;21708;-70
2022/07/31 06:53:29;;;;;;;12.47;8.48;;;31.20;95.60;;;;;;1855180;75;21659;-70
2022/07/31 06:55:59;;;;;;;11.25;8.98;;;31.20;95.60;;;;;;1850941;74;21093;-71
2022/07/31 06:58:31;;;;;;;10.90;9.05;;;31.20;95.50;;;;;;1855792;75;21666;-71
2022/07/31 07:01:02;;;;;;;9.78;6.70;;;31.10;95.40;;;;;;1858290;75;21168;-71
2022/07/31 07:03:33;;;;;;;9.30;6.78;;;31.10;94.70;;;;;;1851643;77;21117;-70
2022/07/31 07:06:04;;;;;;;6.30;5.35;;;31.00;94.80;;;;;;1854069;76;21790;-71
2022/07/31 07:08:34;;;;;;;6.42;5.05;;;31.00;94.30;;;;;;1860339;77;21229;-70
2022/07/31 07:11:06;;;;;;;11.57;7.60;;;30.90;93.90;;;;;;1849750;76;21697;-70
2022/07/31 07:13:38;;;;;;;8.23;5.55;;;30.80;93.90;;;;;;1848152;76;21779;-70
2022/07/31 07:16:10;;;;;;;7.50;5.67;;;30.70;93.70;;;;;;1850235;76;21202;-70
2022/07/31 07:18:44;;;;;;;7.75;5.83;;;30.70;93.50;;;;;;1858229;75;21119;-71
2022/07/31 07:21:31;;;;;;;11.68;7.50;;;30.70;93.50;;;;;;1853864;76;21137;-71
2022/07/31 07:24:03;;;;;;;16.57;12.45;;;30.60;93.70;;;;;;1854258;74;21176;-71
2022/07/31 07:26:34;;;;;;;18.12;10.90;;;30.60;94.40;;;;;;1854274;75;21149;-71
2022/07/31 07:29:05;;;;;;;13.65;8.93;;;30.60;95.20;;;;;;1850618;76;21172;-70
2022/07/31 07:31:52;;;;;;;23.20;10.03;;;30.40;95.60;;;;;;1863835;75;21165;-71
2022/07/31 07:34:23;;;;;;;12.53;7.40;;;30.30;96.40;;;;;;1843371;77;21199;-70
2022/07/31 07:36:54;;;;;;;9.88;5.40;;;30.00;95.90;;;;;;1864257;76;21172;-72
2022/07/31 07:39:25;;;;;;;8.45;4.00;;;29.50;95.50;;;;;;1863746;76;21118;-72
2022/07/31 07:41:56;;;;;;;6.97;3.15;;;29.10;94.10;;;;;;1861493;75;21219;-72
2022/07/31 07:44:27;;;;;;;8.80;3.27;;;28.80;94.80;;;;;;1873948;74;21207;-72
2022/07/31 07:46:58;;;;;;;7.42;3.65;;;28.50;95.10;;;;;;1855358;76;21128;-71
2022/07/31 07:49:28;;;;;;;8.18;3.90;;;28.20;96.00;;;;;;1848630;77;21217;-72
2022/07/31 07:51:59;;;;;;;13.22;5.10;;;28.00;96.90;;;;;;1876302;74;21230;-72
2022/07/31 07:54:31;;;;;;;9.03;5.55;;;27.90;98.10;;;;;;1881122;76;21135;-71
2022/07/31 07:57:02;;;;;;;7.33;4.25;;;27.80;98.50;;;;;;1870352;76;21148;-71
2022/07/31 07:59:33;;;;;;;6.35;3.50;;;27.70;98.70;;;;;;1882228;76;21662;-71
2022/07/31 08:02:04;;;;;;;25.40;17.60;;;27.60;98.30;;;;;;1874991;76;21087;-71
2022/07/31 08:04:36;;;;;;;16.77;9.20;;;27.60;98.70;;;;;;1874164;74;21218;-71
2022/07/31 08:07:06;;;;;;;50.20;34.15;;;27.60;98.70;;;;;;1853192;77;21078;-72
2022/07/31 08:09:38;;;;;;;23.70;17.50;;;27.60;98.60;;;;;;1862963;74;21198;-72
2022/07/31 08:12:09;;;;;;;53.05;37.42;;;27.60;99.40;;;;;;1866729;76;21655;-71
2022/07/31 08:14:40;;;;;;;9.00;5.22;;;27.60;99.90;;;;;;1854169;77;21685;-70
2022/07/31 08:17:13;;;;;;;10.45;4.12;;;27.60;99.70;;;;;;1866300;77;21133;-70
2022/07/31 08:19:50;;;;;;;10.85;5.58;;;27.60;99.90;;;;;;1853776;77;21089;-72
2022/07/31 08:22:28;;;;;;;10.50;5.12;;;27.50;99.90;;;;;;1858744;77;21211;-70
2022/07/31 08:25:00;;;;;;;9.08;4.22;;;27.40;99.90;;;;;;1859180;77;21612;-72
2022/07/31 08:27:32;;;;;;;9.53;6.05;;;27.40;99.40;;;;;;1848565;77;21090;-70
2022/07/31 08:30:05;;;;;;;13.28;6.72;;;27.30;99.90;;;;;;1857897;76;21183;-70
2022/07/31 08:32:40;;;;;;;23.07;14.15;;;27.30;99.90;;;;;;1860085;76;21628;-71
2022/07/31 08:35:11;;;;;;;13.38;8.63;;;27.30;99.90;;;;;;1875470;74;21198;-72
2022/07/31 08:37:43;;;;;;;81.10;56.88;;;27.30;99.90;;;;;;1871421;75;21083;-71
2022/07/31 08:40:16;;;;;;;88.82;59.67;;;27.30;99.90;;;;;;1870171;75;21652;-71
2022/07/31 08:42:47;;;;;;;31.93;22.60;;;27.30;99.90;;;;;;1874944;75;21097;-71
2022/07/31 08:45:18;;;;;;;117.22;88.33;;;27.30;99.90;;;;;;1817049;77;21142;-71
2022/07/31 08:47:49;;;;;;;70.42;41.40;;;27.40;99.90;;;;;;1827871;76;21067;-71
2022/07/31 08:50:20;;;;;;;182.93;147.17;;;27.40;99.90;;;;;;1830726;78;21323;-71
2022/07/31 08:52:54;;;;;;;11.22;7.42;;;27.50;99.90;;;;;;1838153;78;21183;-71
2022/07/31 08:55:25;;;;;;;15.95;10.23;;;27.50;99.90;;;;;;1785688;80;21209;-71
2022/07/31 08:57:58;;;;;;;19.82;12.18;;;27.40;99.70;;;;;;1816114;77;21794;-71
2022/07/31 09:00:32;;;;;;;35.88;17.67;;;27.40;99.80;;;;;;1834882;78;21757;-71
2022/07/31 09:03:03;;;;;;;18.50;11.25;;;27.30;99.90;;;;;;1828210;77;21236;-72
2022/07/31 09:05:40;;;;;;;67.17;43.95;;;27.30;99.90;;;;;;1826314;77;21125;-71
2022/07/31 09:08:09;;;;;;;10.38;6.92;;;27.30;99.90;;;;;;1841723;76;21098;-71
2022/07/31 09:10:42;;;;;;;37.48;21.73;;;27.30;99.90;;;;;;1842536;76;21141;-70
2022/07/31 09:13:20;;;;;;;15.48;8.98;;;27.30;99.90;;;;;;1840094;76;21128;-70
2022/07/31 09:15:51;;;;;;;28.65;18.02;;;27.20;99.90;;;;;;1833809;76;21206;-70
2022/07/31 09:18:23;;;;;;;13.32;8.23;;;27.20;99.90;;;;;;1848060;75;21632;-70
2022/07/31 09:20:55;;;;;;;86.28;47.95;;;27.30;99.90;;;;;;1844234;74;21184;-70
2022/07/31 09:23:27;;;;;;;9.58;7.37;;;27.30;99.90;;;;;;1840513;76;21212;-71
2022/07/31 09:26:01;;;;;;;14.60;10.15;;;27.30;99.90;;;;;;1815283;77;21154;-70
2022/07/31 09:28:32;;;;;;;12.18;8.63;;;27.30;99.90;;;;;;1831500;76;21255;-71
2022/07/31 09:31:06;;;;;;;18.67;9.48;;;27.30;99.90;;;;;;1841763;75;21565;-71
2022/07/31 09:33:38;;;;;;;25.55;18.12;;;27.30;99.90;;;;;;1836580;77;21126;-70
2022/07/31 09:36:11;;;;;;;21.00;13.18;;;27.20;99.90;;;;;;1830124;77;21156;-70
2022/07/31 09:38:44;;;;;;;11.28;8.15;;;27.20;99.90;;;;;;1837396;77;21133;-70
2022/07/31 09:41:17;;;;;;;26.05;16.97;;;27.20;99.90;;;;;;1859254;77;21651;-70
2022/07/31 09:43:52;;;;;;;35.83;22.00;;;27.20;99.90;;;;;;1855179;77;21596;-70
2022/07/31 09:46:23;;;;;;;23.12;15.78;;;27.20;99.90;;;;;;1852197;77;21714;-71
2022/07/31 09:48:56;;;;;;;21.57;16.15;;;27.20;99.90;;;;;;1860065;76;21207;-71
2022/07/31 09:51:30;;;;;;;14.40;10.20;;;27.10;99.90;;;;;;1841391;76;21142;-72
2022/07/31 09:54:01;;;;;;;16.93;11.25;;;27.10;99.90;;;;;;1851445;75;21182;-70
2022/07/31 09:56:38;;;;;;;25.92;17.05;;;27.10;99.90;;;;;;1845486;76;21132;-72
2022/07/31 09:59:07;;;;;;;14.03;8.35;;;27.10;99.90;;;;;;1854239;76;21592;-72
2022/07/31 10:01:40;;;;;;;24.10;15.80;;;27.10;99.90;;;;;;1851708;76;21184;-72
2022/07/31 10:04:11;;;;;;;12.33;8.63;;;27.20;99.90;;;;;;1825115;78;21153;-71
2022/07/31 10:06:43;;;;;;;11.45;8.10;;;27.20;99.90;;;;;;1799782;78;21170;-71
2022/07/31 10:09:15;;;;;;;12.68;8.43;;;27.20;99.90;;;;;;1852928;76;21214;-70
2022/07/31 10:11:48;;;;;;;34.45;23.83;;;27.30;99.90;;;;;;1844386;76;21116;-70
2022/07/31 10:14:21;;;;;;;13.15;10.13;;;27.30;99.90;;;;;;1869573;77;21679;-71
2022/07/31 10:16:55;;;;;;;15.53;11.48;;;27.30;99.90;;;;;;1851160;76;21153;-71
2022/07/31 10:19:28;;;;;;;12.73;10.65;;;27.30;99.90;;;;;;1834811;78;21169;-71
2022/07/31 10:22:02;;;;;;;17.12;13.98;;;27.30;99.90;;;;;;1873263;75;21207;-71
2022/07/31 10:24:35;;;;;;;12.75;10.70;;;27.30;99.90;;;;;;1860298;76;21280;-70
2022/07/31 10:27:06;;;;;;;13.40;9.63;;;27.30;99.90;;;;;;1857783;77;21208;-70
2022/07/31 10:29:38;;;;;;;14.80;12.00;;;27.20;99.90;;;;;;1851817;76;21201;-69
2022/07/31 10:32:10;;;;;;;13.55;11.48;;;27.20;99.90;;;;;;1858526;76;21207;-70
2022/07/31 10:34:44;;;;;;;27.40;21.48;;;27.10;99.90;;;;;;1780580;78;21200;-71
2022/07/31 10:37:17;;;;;;;18.05;13.40;;;27.10;99.90;;;;;;1856436;75;21500;-70
2022/07/31 10:39:50;;;;;;;12.68;9.18;;;27.00;99.90;;;;;;1838710;76;21198;-70
2022/07/31 10:42:23;;;;;;;61.83;38.92;;;27.00;99.90;;;;;;1805068;78;21130;-71
2022/07/31 10:44:57;;;;;;;26.23;19.02;;;27.00;99.90;;;;;;1810356;78;21084;-70
2022/07/31 10:47:28;;;;;;;47.98;38.80;;;26.90;99.90;;;;;;1773265;78;21751;-70
2022/07/31 10:50:00;;;;;;;12.03;8.25;;;26.90;99.90;;;;;;1748049;81;21352;-70
2022/07/31 10:52:33;;;;;;;7.67;6.50;;;26.90;99.90;;;;;;1769072;80;21130;-71
2022/07/31 10:55:06;;;;;;;9.30;7.35;;;26.90;99.90;;;;;;1773140;80;21202;-71
2022/07/31 10:57:39;;;;;;;18.20;12.63;;;26.90;99.90;;;;;;1765301;80;21161;-71
2022/07/31 11:00:16;;;;;;;16.67;11.73;;;26.80;99.90;;;;;;1780490;78;21702;-72
2022/07/31 11:02:48;;;;;;;29.40;26.55;;;26.80;99.90;;;;;;1777317;80;21261;-71
2022/07/31 11:05:28;;;;;;;71.85;53.35;;;26.80;99.90;;;;;;1780928;80;21075;-78
2022/07/31 11:07:56;;;;;;;23.00;17.32;;;26.80;99.90;;;;;;1774480;80;21111;-77
2022/07/31 11:10:38;;;;;;;15.85;13.60;;;26.80;99.90;;;;;;1776057;80;21232;-78
2022/07/31 11:13:14;;;;;;;8.33;6.58;;;26.80;99.90;;;;;;1772198;78;21140;-78
2022/07/31 11:15:45;;;;;;;9.25;7.60;;;26.90;99.90;;;;;;1769370;80;21128;-78
2022/07/31 11:18:18;;;;;;;12.95;9.93;;;26.80;99.90;;;;;;1772504;80;21110;-79
2022/07/31 11:21:02;;;;;;;7.45;6.35;;;26.90;99.90;;;;;;1828838;77;21197;-77
2022/07/31 11:23:36;;;;;;;9.70;6.58;;;26.90;99.90;;;;;;1769345;80;21664;-78
2022/07/31 11:26:09;;;;;;;7.62;6.60;;;26.90;99.90;;;;;;1766430;80;21671;-79
2022/07/31 11:28:46;;;;;;;32.95;29.37;;;26.90;99.90;;;;;;1763803;80;21220;-78
2022/07/31 11:31:13;;;;;;;7.65;6.28;;;26.90;99.90;;;;;;1755079;81;21254;-79
2022/07/31 11:33:48;;;;;;;20.30;14.10;;;26.90;99.90;;;;;;1746987;80;21144;-79
2022/07/31 11:36:21;;;;;;;7.35;6.58;;;26.90;99.90;;;;;;1756571;80;22038;-78
2022/07/31 11:39:02;;;;;;;16.95;13.75;;;26.90;99.90;;;;;;1758705;81;21220;-79
2022/07/31 11:41:38;;;;;;;34.48;21.45;;;26.90;99.90;;;;;;1733785;81;21266;-78
2022/07/31 11:44:15;;;;;;;13.48;9.88;;;26.90;99.90;;;;;;1787770;80;21194;-82
2022/07/31 11:46:47;;;;;;;10.98;7.62;;;26.80;99.90;;;;;;1786046;80;21228;-78
2022/07/31 11:49:24;;;;;;;29.40;17.67;;;26.80;99.90;;;;;;1762298;80;21365;-79
2022/07/31 11:52:02;;;;;;;43.23;27.32;;;26.80;99.90;;;;;;1771625;78;21172;-78
2022/07/31 11:54:37;;;;;;;18.77;12.88;;;26.80;99.90;;;;;;1763267;80;21194;-79
2022/07/31 11:57:06;;;;;;;18.23;12.10;;;26.80;99.90;;;;;;1738088;80;21131;-79
2022/07/31 11:59:40;;;;;;;17.85;11.63;;;26.80;99.90;;;;;;1753953;80;21226;-79
2022/07/31 12:02:15;;;;;;;11.90;10.10;;;26.70;99.90;;;;;;1819102;77;21153;-78
2022/07/31 12:04:46;;;;;;;23.45;17.20;;;26.70;99.90;;;;;;1816432;76;21201;-78
2022/07/31 12:07:18;;;;;;;15.15;10.25;;;26.70;99.90;;;;;;1829439;77;21137;-77
2022/07/31 12:09:49;;;;;;;19.30;12.40;;;26.70;99.90;;;;;;1820339;78;21169;-80
2022/07/31 12:12:22;;;;;;;23.57;16.60;;;26.60;99.90;;;;;;1822841;77;21210;-79
2022/07/31 12:15:18;;;;;;;8.30;6.70;;;26.60;99.90;;;;;;1816017;77;21196;-79
2022/07/31 12:17:50;;;;;;;15.68;11.35;;;26.60;99.90;;;;;;1813895;78;21197;-79
2022/07/31 12:20:22;;;;;;;9.78;7.87;;;26.70;99.90;;;;;;1820795;77;21162;-78
2022/07/31 12:22:57;;;;;;;35.30;24.50;;;26.70;99.90;;;;;;1815810;76;21189;-78
2022/07/31 12:25:29;;;;;;;26.02;16.87;;;26.70;99.90;;;;;;1813671;78;21221;-78
2022/07/31 12:28:03;;;;;;;8.88;7.10;;;26.70;99.90;;;;;;1794971;78;21152;-77
2022/07/31 12:30:55;;;;;;;13.25;10.40;;;26.70;99.90;;;;;;1824901;78;21193;-78
2022/07/31 12:33:28;;;;;;;24.75;16.73;;;26.70;99.90;;;;;;1812085;78;21288;-78
2022/07/31 12:36:03;;;;;;;76.02;41.80;;;26.70;99.90;;;;;;1808789;78;21172;-79
2022/07/31 12:38:48;;;;;;;279.55;182.40;;;26.70;99.90;;;;;;1816625;78;21129;-78
2022/07/31 12:41:19;;;;;;;13.38;10.05;;;26.70;99.90;;;;;;1826600;77;21648;-78
2022/07/31 12:43:50;;;;;;;11.97;9.83;;;26.60;99.90;;;;;;1841319;77;21105;-79
2022/07/31 12:46:35;;;;;;;71.05;53.70;;;26.60;99.90;;;;;;1811963;78;21694;-80
2022/07/31 12:49:04;;;;;;;14.18;10.98;;;26.60;99.90;;;;;;1785489;78;21252;-80
2022/07/31 12:51:37;;;;;;;123.40;89.55;;;26.60;99.90;;;;;;1809456;79;21209;-79
2022/07/31 12:54:10;;;;;;;21.48;16.37;;;26.50;99.90;;;;;;1808480;78;21246;-79
2022/07/31 12:56:52;;;;;;;108.57;57.90;;;26.50;99.90;;;;;;1790658;79;21145;-76
2022/07/31 12:59:45;;;;;;;54.93;36.58;;;26.40;99.90;;;;;;1801764;77;21239;-78
2022/07/31 13:02:06;;;;;;;37.00;26.85;;;26.40;99.90;;;;;;1803734;77;21122;-79